EGJBEGJJ

Guest
Details From EGJB - Guernsey
To EGJJ - Jersey
Flight Number -
Tags Routegen Generated
Created
Modified
Stats Distance 24 nm / 45 km
Max Altitude 100 ft / 30 m
Waypoints 5
Social Downloads 9
Likes 0
Share

Download

Looking for another format? Having issues loading an existing format? Contact us
Advertisement - Login to hide

Notes

Departing runway 8 EGJB. Arriving runway 8 EGJJ.

Route

EGJB +49.44_-002.48 +49.32_-002.40 +49.20_-002.32 EGJJ

ID Type Via Altitude (ft/m) Position (lat/lon) Dist (leg/tot) Name
O EGJB APT - 0 / 0 49.43523 / -2.59190 - / 0 nm
+49.44_-002.48 LATLON - 100 / 30 49.43825 / -2.48071 4 / 4 nm
+49.32_-002.40 LATLON - 100 / 30 49.31802 / -2.39875 7 / 12 nm
+49.20_-002.32 LATLON - 100 / 30 49.19780 / -2.31678 7 / 20 nm
O EGJJ APT - 0 / 0 49.20699 / -2.20693 4 / 24 nm

Altitude Profile

Advertisement - Login to hide

EGJB

Details ICAO EGJB (GCI)
Name Guernsey
Region United Kingdom
Timezone Europe/Guernsey (UTC+1.0)
Stats Elevation 335 ft / 102 m (AMSL)
Location 49.434900° -2.602800°
Runways 1
Magnetic Variation 0.590° W

METAR

EGJB 180150Z 04004KT CAVOK 05/00 Q1026

Decode

TAF

Not found

Departure Runways

ID Width Length Bearing (true/mag) Surface Threshold Overrun Markings Lighting
09 148 ft / 45 m 5,177 ft / 1,578 m 87.55° / 88.14° ASPHALT 0 ft / 0 m 0 ft / 0 m PREC-APP CENTERLINE EDGE THRESHOLD CALVERT-ILS TDZ REIL-OMNI
27 148 ft / 45 m 5,177 ft / 1,578 m 267.57° / 268.16° ASPHALT 390 ft / 119 m 200 ft / 61 m PREC-APP CENTERLINE EDGE THRESHOLD CALVERT-ILS TDZ REIL-OMNI

EGJJ

Details ICAO EGJJ (JER)
Name Jersey
Region United Kingdom
Timezone Europe/Jersey (UTC+1.0)
Stats Elevation 276 ft / 84 m (AMSL)
Location 49.208000° -2.195260°
Runways 1
Magnetic Variation 0.431° W

METAR

EGJJ 180220Z AUTO 08005KT 9999 NCD 04/M01 Q1025

Decode

TAF

Not found

Destination Runways

ID Width Length Bearing (true/mag) Surface Threshold Overrun Markings Lighting
08 150 ft / 46 m 5,579 ft / 1,700 m 82.72° / 83.15° ASPHALT 187 ft / 57 m 0 ft / 0 m UK-PREC-APP CENTERLINE EDGE THRESHOLD RAIL TDZ REIL-OMNI
26 150 ft / 46 m 5,579 ft / 1,700 m 262.74° / 263.17° ASPHALT 299 ft / 91 m 20 ft / 6 m UK-PREC-APP CENTERLINE EDGE THRESHOLD CALVERT-ILS TDZ REIL-OMNI

Approach Navaids

Runway Type Ident Frequency Range Bearing (true/mag) Slope Elevation
08 GS IJJ 110.90 MHz 10 nm / 19 km 82.73° / 83.16 ° 3.00° 276 ft / 84 m (AMSL)
08 DME IJJ 110.90 MHz 18 nm / 33 km - - 287 ft / 87 m (AMSL)
08 LOC-ILS IJJ 110.90 MHz 18 nm / 33 km 82.73° / 83.16 ° - 276 ft / 84 m (AMSL)
26 LOC-ILS IDD 110.30 MHz 18 nm / 33 km 262.73° / 263.16 ° - 276 ft / 84 m (AMSL)
26 DME IDD 110.30 MHz 18 nm / 33 km - - 289 ft / 88 m (AMSL)
26 GS IDD 110.30 MHz 10 nm / 19 km 262.73° / 263.16 ° 3.00° 276 ft / 84 m (AMSL)

Popular Alternatives